sensor_id;sensor_type;location;lat;lon;timestamp;temperature;humidity
12957;DHT22;6543;48.836;10.092;2023-09-08T00:01:17;14.10;99.90
12957;DHT22;6543;48.836;10.092;2023-09-08T00:03:45;14.20;99.90
12957;DHT22;6543;48.836;10.092;2023-09-08T00:06:12;14.20;99.90
12957;DHT22;6543;48.836;10.092;2023-09-08T00:08:38;14.20;99.90
12957;DHT22;6543;48.836;10.092;2023-09-08T00:11:07;14.20;99.90
12957;DHT22;6543;48.836;10.092;2023-09-08T00:13:33;14.30;99.90
12957;DHT22;6543;48.836;10.092;2023-09-08T00:16:00;14.30;99.90
12957;DHT22;6543;48.836;10.092;2023-09-08T00:18:27;14.40;99.90
12957;DHT22;6543;48.836;10.092;2023-09-08T00:20:54;14.40;99.90
12957;DHT22;6543;48.836;10.092;2023-09-08T00:23:20;14.40;99.90
12957;DHT22;6543;48.836;10.092;2023-09-08T00:25:49;14.40;99.90
12957;DHT22;6543;48.836;10.092;2023-09-08T00:28:17;14.40;99.90
12957;DHT22;6543;48.836;10.092;2023-09-08T00:30:44;14.30;99.90
12957;DHT22;6543;48.836;10.092;2023-09-08T00:33:10;14.30;99.90
12957;DHT22;6543;48.836;10.092;2023-09-08T00:35:39;14.20;99.90
12957;DHT22;6543;48.836;10.092;2023-09-08T00:38:06;14.10;99.90
12957;DHT22;6543;48.836;10.092;2023-09-08T00:40:32;14.10;99.90
12957;DHT22;6543;48.836;10.092;2023-09-08T00:42:59;14.00;99.90
12957;DHT22;6543;48.836;10.092;2023-09-08T00:45:29;14.00;99.90
12957;DHT22;6543;48.836;10.092;2023-09-08T00:47:56;14.00;99.90
12957;DHT22;6543;48.836;10.092;2023-09-08T00:50:23;13.90;99.90
12957;DHT22;6543;48.836;10.092;2023-09-08T00:52:50;13.90;99.90
12957;DHT22;6543;48.836;10.092;2023-09-08T00:55:17;13.90;99.90
12957;DHT22;6543;48.836;10.092;2023-09-08T00:57:44;13.80;99.90
12957;DHT22;6543;48.836;10.092;2023-09-08T01:00:12;13.80;99.90
12957;DHT22;6543;48.836;10.092;2023-09-08T01:02:41;13.80;99.90
12957;DHT22;6543;48.836;10.092;2023-09-08T01:05:10;13.80;99.90
12957;DHT22;6543;48.836;10.092;2023-09-08T01:07:38;13.60;99.90
12957;DHT22;6543;48.836;10.092;2023-09-08T01:10:06;13.60;99.90
12957;DHT22;6543;48.836;10.092;2023-09-08T01:12:33;13.60;99.90
12957;DHT22;6543;48.836;10.092;2023-09-08T01:15:00;13.50;99.90
12957;DHT22;6543;48.836;10.092;2023-09-08T01:17:27;13.40;99.90
12957;DHT22;6543;48.836;10.092;2023-09-08T01:19:56;13.40;99.90
12957;DHT22;6543;48.836;10.092;2023-09-08T01:22:36;13.40;99.90
12957;DHT22;6543;48.836;10.092;2023-09-08T01:25:13;13.30;99.90
12957;DHT22;6543;48.836;10.092;2023-09-08T01:27:45;13.30;99.90
12957;DHT22;6543;48.836;10.092;2023-09-08T01:30:14;13.30;99.90
12957;DHT22;6543;48.836;10.092;2023-09-08T01:32:42;13.10;99.90
12957;DHT22;6543;48.836;10.092;2023-09-08T01:35:10;13.00;99.90
12957;DHT22;6543;48.836;10.092;2023-09-08T01:37:39;13.00;99.90
12957;DHT22;6543;48.836;10.092;2023-09-08T01:40:07;13.00;99.90
12957;DHT22;6543;48.836;10.092;2023-09-08T01:42:36;13.00;99.90
12957;DHT22;6543;48.836;10.092;2023-09-08T01:45:04;13.00;99.90
12957;DHT22;6543;48.836;10.092;2023-09-08T01:47:31;13.10;99.90
12957;DHT22;6543;48.836;10.092;2023-09-08T01:49:58;13.20;99.90
12957;DHT22;6543;48.836;10.092;2023-09-08T01:52:25;13.20;99.90
12957;DHT22;6543;48.836;10.092;2023-09-08T01:54:51;13.20;99.90
12957;DHT22;6543;48.836;10.092;2023-09-08T01:57:18;13.20;99.90
12957;DHT22;6543;48.836;10.092;2023-09-08T01:59:47;13.10;99.90
12957;DHT22;6543;48.836;10.092;2023-09-08T02:02:14;13.10;99.90
12957;DHT22;6543;48.836;10.092;2023-09-08T02:04:41;12.90;99.90
12957;DHT22;6543;48.836;10.092;2023-09-08T02:07:08;12.70;99.90
12957;DHT22;6543;48.836;10.092;2023-09-08T02:09:38;12.70;99.90
12957;DHT22;6543;48.836;10.092;2023-09-08T02:12:05;12.60;99.90
12957;DHT22;6543;48.836;10.092;2023-09-08T02:14:32;12.70;99.90
12957;DHT22;6543;48.836;10.092;2023-09-08T02:17:00;12.70;99.90
12957;DHT22;6543;48.836;10.092;2023-09-08T02:19:27;12.70;99.90
12957;DHT22;6543;48.836;10.092;2023-09-08T02:21:54;12.70;99.90
12957;DHT22;6543;48.836;10.092;2023-09-08T02:24:21;12.50;99.90
12957;DHT22;6543;48.836;10.092;2023-09-08T02:26:48;12.40;99.90
12957;DHT22;6543;48.836;10.092;2023-09-08T02:29:14;12.40;99.90
12957;DHT22;6543;48.836;10.092;2023-09-08T02:31:41;12.40;99.90
12957;DHT22;6543;48.836;10.092;2023-09-08T02:34:10;12.60;99.90
12957;DHT22;6543;48.836;10.092;2023-09-08T02:36:38;12.60;99.90
12957;DHT22;6543;48.836;10.092;2023-09-08T02:39:05;12.70;99.90
12957;DHT22;6543;48.836;10.092;2023-09-08T02:41:32;12.80;99.90
12957;DHT22;6543;48.836;10.092;2023-09-08T02:43:59;12.70;99.90
12957;DHT22;6543;48.836;10.092;2023-09-08T02:46:26;12.70;99.90
12957;DHT22;6543;48.836;10.092;2023-09-08T02:48:53;12.60;99.90
12957;DHT22;6543;48.836;10.092;2023-09-08T02:51:21;12.60;99.90
12957;DHT22;6543;48.836;10.092;2023-09-08T02:53:48;12.70;99.90
12957;DHT22;6543;48.836;10.092;2023-09-08T02:56:15;12.70;99.90
12957;DHT22;6543;48.836;10.092;2023-09-08T02:58:42;12.70;99.90
12957;DHT22;6543;48.836;10.092;2023-09-08T03:01:10;12.70;99.90
12957;DHT22;6543;48.836;10.092;2023-09-08T03:03:39;12.70;99.90
12957;DHT22;6543;48.836;10.092;2023-09-08T03:06:06;12.70;99.90
12957;DHT22;6543;48.836;10.092;2023-09-08T03:08:34;12.80;99.90
12957;DHT22;6543;48.836;10.092;2023-09-08T03:11:03;12.70;99.90
12957;DHT22;6543;48.836;10.092;2023-09-08T03:13:30;12.70;99.90
12957;DHT22;6543;48.836;10.092;2023-09-08T03:15:56;12.70;99.90
12957;DHT22;6543;48.836;10.092;2023-09-08T03:18:23;12.70;99.90
12957;DHT22;6543;48.836;10.092;2023-09-08T03:20:51;12.70;99.90
12957;DHT22;6543;48.836;10.092;2023-09-08T03:23:17;12.80;99.90
12957;DHT22;6543;48.836;10.092;2023-09-08T03:25:46;12.80;99.90
12957;DHT22;6543;48.836;10.092;2023-09-08T03:28:14;12.80;99.90
12957;DHT22;6543;48.836;10.092;2023-09-08T03:30:41;12.90;99.90
12957;DHT22;6543;48.836;10.092;2023-09-08T03:33:08;12.80;99.90
12957;DHT22;6543;48.836;10.092;2023-09-08T03:35:34;12.80;99.90
12957;DHT22;6543;48.836;10.092;2023-09-08T03:38:01;12.70;99.90
12957;DHT22;6543;48.836;10.092;2023-09-08T03:40:28;12.70;99.90
12957;DHT22;6543;48.836;10.092;2023-09-08T03:42:56;12.70;99.90
12957;DHT22;6543;48.836;10.092;2023-09-08T03:45:23;12.80;99.90
12957;DHT22;6543;48.836;10.092;2023-09-08T03:47:50;12.80;99.90
12957;DHT22;6543;48.836;10.092;2023-09-08T03:50:16;12.80;99.90
12957;DHT22;6543;48.836;10.092;2023-09-08T03:52:43;12.90;99.90
12957;DHT22;6543;48.836;10.092;2023-09-08T03:55:10;12.80;99.90
12957;DHT22;6543;48.836;10.092;2023-09-08T03:57:37;12.80;99.90
12957;DHT22;6543;48.836;10.092;2023-09-08T04:00:07;12.80;99.90
12957;DHT22;6543;48.836;10.092;2023-09-08T04:02:35;12.80;99.90
12957;DHT22;6543;48.836;10.092;2023-09-08T04:05:03;12.70;99.90
12957;DHT22;6543;48.836;10.092;2023-09-08T04:07:30;12.70;99.90
12957;DHT22;6543;48.836;10.092;2023-09-08T04:09:56;12.70;99.90
12957;DHT22;6543;48.836;10.092;2023-09-08T04:12:23;12.60;99.90
12957;DHT22;6543;48.836;10.092;2023-09-08T04:14:50;12.50;99.90
12957;DHT22;6543;48.836;10.092;2023-09-08T04:17:18;12.50;99.90
12957;DHT22;6543;48.836;10.092;2023-09-08T04:19:45;12.50;99.90
12957;DHT22;6543;48.836;10.092;2023-09-08T04:22:11;12.50;99.90
12957;DHT22;6543;48.836;10.092;2023-09-08T04:24:38;12.60;99.90
12957;DHT22;6543;48.836;10.092;2023-09-08T04:27:05;12.60;99.90
12957;DHT22;6543;48.836;10.092;2023-09-08T04:29:34;12.70;99.90
12957;DHT22;6543;48.836;10.092;2023-09-08T04:32:01;12.70;99.90
12957;DHT22;6543;48.836;10.092;2023-09-08T04:34:36;12.80;99.90
12957;DHT22;6543;48.836;10.092;2023-09-08T04:37:03;12.80;99.90
12957;DHT22;6543;48.836;10.092;2023-09-08T04:39:30;12.90;99.90
12957;DHT22;6543;48.836;10.092;2023-09-08T04:41:57;12.90;99.90
12957;DHT22;6543;48.836;10.092;2023-09-08T04:44:24;12.90;99.90
12957;DHT22;6543;48.836;10.092;2023-09-08T04:46:51;13.00;99.90
12957;DHT22;6543;48.836;10.092;2023-09-08T04:49:18;13.20;99.90
12957;DHT22;6543;48.836;10.092;2023-09-08T04:51:46;13.20;99.90
12957;DHT22;6543;48.836;10.092;2023-09-08T04:54:13;13.30;99.90
12957;DHT22;6543;48.836;10.092;2023-09-08T04:56:40;13.60;99.90
12957;DHT22;6543;48.836;10.092;2023-09-08T04:59:07;13.60;99.90
12957;DHT22;6543;48.836;10.092;2023-09-08T05:01:34;13.70;99.90
12957;DHT22;6543;48.836;10.092;2023-09-08T05:04:03;13.80;99.90
12957;DHT22;6543;48.836;10.092;2023-09-08T05:06:30;13.90;99.90
12957;DHT22;6543;48.836;10.092;2023-09-08T05:08:58;13.90;99.90
12957;DHT22;6543;48.836;10.092;2023-09-08T05:11:26;14.00;99.90
12957;DHT22;6543;48.836;10.092;2023-09-08T05:13:53;14.20;99.90
12957;DHT22;6543;48.836;10.092;2023-09-08T05:16:20;14.20;99.90
12957;DHT22;6543;48.836;10.092;2023-09-08T05:19:01;14.20;99.90
12957;DHT22;6543;48.836;10.092;2023-09-08T05:21:28;14.20;99.90
12957;DHT22;6543;48.836;10.092;2023-09-08T05:23:55;14.10;99.90
12957;DHT22;6543;48.836;10.092;2023-09-08T05:26:23;14.00;99.90
12957;DHT22;6543;48.836;10.092;2023-09-08T05:28:50;13.90;99.90
12957;DHT22;6543;48.836;10.092;2023-09-08T05:31:17;13.90;99.90
12957;DHT22;6543;48.836;10.092;2023-09-08T05:33:43;13.90;99.90
12957;DHT22;6543;48.836;10.092;2023-09-08T05:36:10;14.00;99.90
12957;DHT22;6543;48.836;10.092;2023-09-08T05:38:37;14.10;99.90
12957;DHT22;6543;48.836;10.092;2023-09-08T05:41:04;14.10;99.90
12957;DHT22;6543;48.836;10.092;2023-09-08T05:43:32;14.20;99.90
12957;DHT22;6543;48.836;10.092;2023-09-08T05:45:59;14.30;99.90
12957;DHT22;6543;48.836;10.092;2023-09-08T05:48:25;14.30;99.90
12957;DHT22;6543;48.836;10.092;2023-09-08T05:50:52;14.40;99.90
12957;DHT22;6543;48.836;10.092;2023-09-08T05:53:19;14.40;99.90
12957;DHT22;6543;48.836;10.092;2023-09-08T05:55:46;14.50;99.90
12957;DHT22;6543;48.836;10.092;2023-09-08T05:58:13;14.60;99.90
12957;DHT22;6543;48.836;10.092;2023-09-08T06:00:41;14.60;99.90
12957;DHT22;6543;48.836;10.092;2023-09-08T06:03:08;14.80;99.90
12957;DHT22;6543;48.836;10.092;2023-09-08T06:05:35;14.90;99.90
12957;DHT22;6543;48.836;10.092;2023-09-08T06:08:02;14.90;99.90
12957;DHT22;6543;48.836;10.092;2023-09-08T06:10:29;15.00;99.90
12957;DHT22;6543;48.836;10.092;2023-09-08T06:12:56;15.10;99.90
12957;DHT22;6543;48.836;10.092;2023-09-08T06:15:23;15.20;99.90
12957;DHT22;6543;48.836;10.092;2023-09-08T06:17:51;15.30;99.90
12957;DHT22;6543;48.836;10.092;2023-09-08T06:20:18;15.50;99.90
12957;DHT22;6543;48.836;10.092;2023-09-08T06:22:44;15.60;99.90
12957;DHT22;6543;48.836;10.092;2023-09-08T06:25:11;15.70;99.90
12957;DHT22;6543;48.836;10.092;2023-09-08T06:27:38;15.80;99.90
12957;DHT22;6543;48.836;10.092;2023-09-08T06:30:06;16.00;99.90
12957;DHT22;6543;48.836;10.092;2023-09-08T06:32:33;16.20;99.90
12957;DHT22;6543;48.836;10.092;2023-09-08T06:35:01;16.40;99.90
12957;DHT22;6543;48.836;10.092;2023-09-08T06:37:28;16.50;99.90
12957;DHT22;6543;48.836;10.092;2023-09-08T06:39:55;16.70;99.90
12957;DHT22;6543;48.836;10.092;2023-09-08T06:42:22;16.90;99.90
12957;DHT22;6543;48.836;10.092;2023-09-08T06:44:49;17.00;99.90
12957;DHT22;6543;48.836;10.092;2023-09-08T06:47:15;17.20;99.90
12957;DHT22;6543;48.836;10.092;2023-09-08T06:49:42;17.30;99.90
12957;DHT22;6543;48.836;10.092;2023-09-08T06:54:38;17.60;99.90
12957;DHT22;6543;48.836;10.092;2023-09-08T06:57:04;17.60;99.90
12957;DHT22;6543;48.836;10.092;2023-09-08T06:59:31;17.80;99.90
12957;DHT22;6543;48.836;10.092;2023-09-08T07:01:58;17.90;99.90
12957;DHT22;6543;48.836;10.092;2023-09-08T07:04:25;17.90;99.90
12957;DHT22;6543;48.836;10.092;2023-09-08T07:06:52;18.10;99.90
12957;DHT22;6543;48.836;10.092;2023-09-08T07:09:21;18.20;99.90
12957;DHT22;6543;48.836;10.092;2023-09-08T07:11:48;18.30;99.90
12957;DHT22;6543;48.836;10.092;2023-09-08T07:14:15;18.40;99.90
12957;DHT22;6543;48.836;10.092;2023-09-08T07:16:42;18.30;99.90
12957;DHT22;6543;48.836;10.092;2023-09-08T07:19:08;18.50;99.90
12957;DHT22;6543;48.836;10.092;2023-09-08T07:21:35;18.80;99.90
12957;DHT22;6543;48.836;10.092;2023-09-08T07:24:02;18.80;99.90
12957;DHT22;6543;48.836;10.092;2023-09-08T07:26:30;18.90;99.90
12957;DHT22;6543;48.836;10.092;2023-09-08T07:28:57;19.00;99.90
12957;DHT22;6543;48.836;10.092;2023-09-08T07:31:24;19.30;99.90
12957;DHT22;6543;48.836;10.092;2023-09-08T07:33:51;19.30;99.90
12957;DHT22;6543;48.836;10.092;2023-09-08T07:36:18;19.40;99.90
12957;DHT22;6543;48.836;10.092;2023-09-08T07:38:44;19.50;99.90
12957;DHT22;6543;48.836;10.092;2023-09-08T07:41:11;19.70;99.90
12957;DHT22;6543;48.836;10.092;2023-09-08T07:43:39;19.80;99.90
12957;DHT22;6543;48.836;10.092;2023-09-08T07:46:06;19.90;99.90
12957;DHT22;6543;48.836;10.092;2023-09-08T07:48:33;20.00;99.90
12957;DHT22;6543;48.836;10.092;2023-09-08T07:51:00;20.10;99.90
12957;DHT22;6543;48.836;10.092;2023-09-08T07:53:27;20.10;99.90
12957;DHT22;6543;48.836;10.092;2023-09-08T07:55:54;20.20;99.90
12957;DHT22;6543;48.836;10.092;2023-09-08T07:58:21;20.30;99.90
12957;DHT22;6543;48.836;10.092;2023-09-08T08:00:49;20.30;99.90
12957;DHT22;6543;48.836;10.092;2023-09-08T08:03:16;20.60;99.90
12957;DHT22;6543;48.836;10.092;2023-09-08T08:05:43;20.70;99.90
12957;DHT22;6543;48.836;10.092;2023-09-08T08:08:10;20.70;99.90
12957;DHT22;6543;48.836;10.092;2023-09-08T08:10:37;20.70;99.90
12957;DHT22;6543;48.836;10.092;2023-09-08T08:13:04;20.70;99.90
12957;DHT22;6543;48.836;10.092;2023-09-08T08:15:37;20.90;99.90
12957;DHT22;6543;48.836;10.092;2023-09-08T08:18:06;21.00;99.90
12957;DHT22;6543;48.836;10.092;2023-09-08T08:20:35;21.20;99.90
12957;DHT22;6543;48.836;10.092;2023-09-08T08:23:02;21.20;99.90
12957;DHT22;6543;48.836;10.092;2023-09-08T08:25:29;21.40;99.90
12957;DHT22;6543;48.836;10.092;2023-09-08T08:27:56;21.40;99.90
12957;DHT22;6543;48.836;10.092;2023-09-08T08:30:24;21.40;99.90
12957;DHT22;6543;48.836;10.092;2023-09-08T08:32:50;21.50;99.90
12957;DHT22;6543;48.836;10.092;2023-09-08T08:35:20;21.60;99.90
12957;DHT22;6543;48.836;10.092;2023-09-08T08:37:47;21.70;99.90
12957;DHT22;6543;48.836;10.092;2023-09-08T08:40:14;21.80;99.90
12957;DHT22;6543;48.836;10.092;2023-09-08T08:42:41;22.00;99.90
12957;DHT22;6543;48.836;10.092;2023-09-08T08:45:08;22.00;99.90
12957;DHT22;6543;48.836;10.092;2023-09-08T08:47:36;22.30;99.90
12957;DHT22;6543;48.836;10.092;2023-09-08T08:50:03;22.40;99.90
12957;DHT22;6543;48.836;10.092;2023-09-08T08:52:31;22.40;99.90
12957;DHT22;6543;48.836;10.092;2023-09-08T08:55:00;22.50;99.90
12957;DHT22;6543;48.836;10.092;2023-09-08T08:57:27;22.50;99.90
12957;DHT22;6543;48.836;10.092;2023-09-08T08:59:54;22.50;99.90
12957;DHT22;6543;48.836;10.092;2023-09-08T09:02:21;22.30;99.90
12957;DHT22;6543;48.836;10.092;2023-09-08T09:04:49;22.70;99.90
12957;DHT22;6543;48.836;10.092;2023-09-08T09:07:18;22.90;99.90
12957;DHT22;6543;48.836;10.092;2023-09-08T09:09:46;23.00;99.90
12957;DHT22;6543;48.836;10.092;2023-09-08T09:12:13;22.90;99.90
12957;DHT22;6543;48.836;10.092;2023-09-08T09:14:45;22.90;99.90
12957;DHT22;6543;48.836;10.092;2023-09-08T09:17:14;22.90;99.90
12957;DHT22;6543;48.836;10.092;2023-09-08T09:19:41;23.30;99.90
12957;DHT22;6543;48.836;10.092;2023-09-08T09:22:08;23.40;99.90
12957;DHT22;6543;48.836;10.092;2023-09-08T09:24:36;23.10;99.90
12957;DHT22;6543;48.836;10.092;2023-09-08T09:27:07;23.30;99.90
12957;DHT22;6543;48.836;10.092;2023-09-08T09:29:40;23.40;99.90
12957;DHT22;6543;48.836;10.092;2023-09-08T09:32:09;23.50;99.90
12957;DHT22;6543;48.836;10.092;2023-09-08T09:34:47;23.70;99.90
12957;DHT22;6543;48.836;10.092;2023-09-08T09:37:15;23.80;99.90
12957;DHT22;6543;48.836;10.092;2023-09-08T09:39:42;23.70;99.90
12957;DHT22;6543;48.836;10.092;2023-09-08T09:42:10;23.70;99.90
12957;DHT22;6543;48.836;10.092;2023-09-08T09:44:37;23.90;99.90
12957;DHT22;6543;48.836;10.092;2023-09-08T09:47:04;24.00;99.90
12957;DHT22;6543;48.836;10.092;2023-09-08T09:49:32;24.20;99.90
12957;DHT22;6543;48.836;10.092;2023-09-08T09:52:07;24.40;99.90
12957;DHT22;6543;48.836;10.092;2023-09-08T09:54:34;24.30;99.90
12957;DHT22;6543;48.836;10.092;2023-09-08T09:57:01;24.40;99.90
12957;DHT22;6543;48.836;10.092;2023-09-08T09:59:30;24.60;99.90
12957;DHT22;6543;48.836;10.092;2023-09-08T10:01:57;24.60;99.90
12957;DHT22;6543;48.836;10.092;2023-09-08T10:04:24;24.90;99.90
12957;DHT22;6543;48.836;10.092;2023-09-08T10:06:52;24.80;99.90
12957;DHT22;6543;48.836;10.092;2023-09-08T10:09:19;25.00;99.90
12957;DHT22;6543;48.836;10.092;2023-09-08T10:11:48;24.80;99.90
12957;DHT22;6543;48.836;10.092;2023-09-08T10:14:16;24.80;99.90
12957;DHT22;6543;48.836;10.092;2023-09-08T10:16:45;24.80;99.90
12957;DHT22;6543;48.836;10.092;2023-09-08T10:19:15;25.00;99.90
12957;DHT22;6543;48.836;10.092;2023-09-08T10:21:46;25.10;99.90
12957;DHT22;6543;48.836;10.092;2023-09-08T10:24:15;25.30;99.90
12957;DHT22;6543;48.836;10.092;2023-09-08T10:26:53;25.20;99.90
12957;DHT22;6543;48.836;10.092;2023-09-08T10:29:21;25.10;99.90
12957;DHT22;6543;48.836;10.092;2023-09-08T10:31:50;25.30;99.90
12957;DHT22;6543;48.836;10.092;2023-09-08T10:34:18;25.30;99.90
12957;DHT22;6543;48.836;10.092;2023-09-08T10:36:45;25.60;99.90
12957;DHT22;6543;48.836;10.092;2023-09-08T10:39:27;25.80;99.90
12957;DHT22;6543;48.836;10.092;2023-09-08T10:42:19;25.70;99.90
12957;DHT22;6543;48.836;10.092;2023-09-08T10:44:56;25.80;99.90
12957;DHT22;6543;48.836;10.092;2023-09-08T10:47:25;26.10;99.90
12957;DHT22;6543;48.836;10.092;2023-09-08T10:49:52;26.00;99.90
12957;DHT22;6543;48.836;10.092;2023-09-08T10:52:23;26.20;99.90
12957;DHT22;6543;48.836;10.092;2023-09-08T10:54:51;26.30;99.90
12957;DHT22;6543;48.836;10.092;2023-09-08T10:57:21;26.40;99.90
12957;DHT22;6543;48.836;10.092;2023-09-08T10:59:51;26.40;99.90
12957;DHT22;6543;48.836;10.092;2023-09-08T11:02:34;26.10;99.90
12957;DHT22;6543;48.836;10.092;2023-09-08T11:05:01;26.00;99.90
12957;DHT22;6543;48.836;10.092;2023-09-08T11:07:30;26.00;99.90
12957;DHT22;6543;48.836;10.092;2023-09-08T11:09:57;26.10;99.90
12957;DHT22;6543;48.836;10.092;2023-09-08T11:12:26;26.20;99.90
12957;DHT22;6543;48.836;10.092;2023-09-08T11:14:53;26.20;99.90
12957;DHT22;6543;48.836;10.092;2023-09-08T11:17:20;26.50;99.90
12957;DHT22;6543;48.836;10.092;2023-09-08T11:19:49;26.60;99.90
12957;DHT22;6543;48.836;10.092;2023-09-08T11:22:17;26.70;99.90
12957;DHT22;6543;48.836;10.092;2023-09-08T11:24:45;26.80;99.90
12957;DHT22;6543;48.836;10.092;2023-09-08T11:27:12;26.80;99.90
12957;DHT22;6543;48.836;10.092;2023-09-08T11:29:38;26.70;99.90
12957;DHT22;6543;48.836;10.092;2023-09-08T11:32:07;26.60;99.90
12957;DHT22;6543;48.836;10.092;2023-09-08T11:34:34;26.40;99.90
12957;DHT22;6543;48.836;10.092;2023-09-08T11:37:06;26.60;99.90
12957;DHT22;6543;48.836;10.092;2023-09-08T11:39:37;26.60;99.90
12957;DHT22;6543;48.836;10.092;2023-09-08T11:42:04;26.80;99.90
12957;DHT22;6543;48.836;10.092;2023-09-08T11:44:31;26.40;99.90
12957;DHT22;6543;48.836;10.092;2023-09-08T11:46:58;26.50;99.90
12957;DHT22;6543;48.836;10.092;2023-09-08T11:49:25;26.60;99.90
12957;DHT22;6543;48.836;10.092;2023-09-08T11:51:52;26.70;99.90
12957;DHT22;6543;48.836;10.092;2023-09-08T11:54:20;26.80;99.90
12957;DHT22;6543;48.836;10.092;2023-09-08T11:56:47;26.80;99.90
12957;DHT22;6543;48.836;10.092;2023-09-08T11:59:14;26.90;99.90
12957;DHT22;6543;48.836;10.092;2023-09-08T12:01:42;26.80;99.90
12957;DHT22;6543;48.836;10.092;2023-09-08T12:04:17;26.60;99.90
12957;DHT22;6543;48.836;10.092;2023-09-08T12:06:44;26.90;99.90
12957;DHT22;6543;48.836;10.092;2023-09-08T12:09:11;26.90;99.90
12957;DHT22;6543;48.836;10.092;2023-09-08T12:11:40;26.80;99.90
12957;DHT22;6543;48.836;10.092;2023-09-08T12:14:10;26.90;99.90
12957;DHT22;6543;48.836;10.092;2023-09-08T12:16:38;26.90;99.90
12957;DHT22;6543;48.836;10.092;2023-09-08T12:19:05;26.80;99.90
12957;DHT22;6543;48.836;10.092;2023-09-08T12:21:34;26.70;99.90
12957;DHT22;6543;48.836;10.092;2023-09-08T12:26:28;26.50;99.90
12957;DHT22;6543;48.836;10.092;2023-09-08T12:28:57;26.70;99.90
12957;DHT22;6543;48.836;10.092;2023-09-08T12:31:24;26.60;99.90
12957;DHT22;6543;48.836;10.092;2023-09-08T12:33:52;26.50;99.90
12957;DHT22;6543;48.836;10.092;2023-09-08T12:36:20;26.50;99.90
12957;DHT22;6543;48.836;10.092;2023-09-08T12:38:47;26.50;99.90
12957;DHT22;6543;48.836;10.092;2023-09-08T12:41:15;26.70;99.90
12957;DHT22;6543;48.836;10.092;2023-09-08T12:43:42;26.60;99.90
12957;DHT22;6543;48.836;10.092;2023-09-08T12:46:10;26.80;99.90
12957;DHT22;6543;48.836;10.092;2023-09-08T12:48:37;27.10;99.90
12957;DHT22;6543;48.836;10.092;2023-09-08T12:51:04;27.10;99.90
12957;DHT22;6543;48.836;10.092;2023-09-08T12:53:33;27.10;99.90
12957;DHT22;6543;48.836;10.092;2023-09-08T12:56:01;27.00;99.90
12957;DHT22;6543;48.836;10.092;2023-09-08T12:58:28;27.20;99.90
12957;DHT22;6543;48.836;10.092;2023-09-08T13:00:55;27.20;99.90
12957;DHT22;6543;48.836;10.092;2023-09-08T13:03:23;27.30;99.90
12957;DHT22;6543;48.836;10.092;2023-09-08T13:05:50;27.70;99.90
12957;DHT22;6543;48.836;10.092;2023-09-08T13:08:17;27.50;99.90
12957;DHT22;6543;48.836;10.092;2023-09-08T13:10:44;27.40;99.90
12957;DHT22;6543;48.836;10.092;2023-09-08T13:13:11;27.20;99.90
12957;DHT22;6543;48.836;10.092;2023-09-08T13:15:38;27.40;99.90
12957;DHT22;6543;48.836;10.092;2023-09-08T13:18:05;27.40;99.90
12957;DHT22;6543;48.836;10.092;2023-09-08T13:20:33;27.20;99.90
12957;DHT22;6543;48.836;10.092;2023-09-08T13:23:00;27.20;99.90
12957;DHT22;6543;48.836;10.092;2023-09-08T13:25:27;27.40;99.90
12957;DHT22;6543;48.836;10.092;2023-09-08T13:27:53;27.80;99.90
12957;DHT22;6543;48.836;10.092;2023-09-08T13:30:20;27.50;99.90
12957;DHT22;6543;48.836;10.092;2023-09-08T13:32:52;27.30;99.90
12957;DHT22;6543;48.836;10.092;2023-09-08T13:35:19;27.30;99.90
12957;DHT22;6543;48.836;10.092;2023-09-08T13:37:47;27.30;99.90
12957;DHT22;6543;48.836;10.092;2023-09-08T13:40:13;27.40;99.90
12957;DHT22;6543;48.836;10.092;2023-09-08T13:42:40;27.40;99.90
12957;DHT22;6543;48.836;10.092;2023-09-08T13:45:08;27.40;99.90
12957;DHT22;6543;48.836;10.092;2023-09-08T13:47:35;27.20;99.90
12957;DHT22;6543;48.836;10.092;2023-09-08T13:50:04;27.20;99.90
12957;DHT22;6543;48.836;10.092;2023-09-08T13:52:31;27.40;99.90
12957;DHT22;6543;48.836;10.092;2023-09-08T13:55:00;27.50;99.90
12957;DHT22;6543;48.836;10.092;2023-09-08T13:57:27;27.50;99.90
12957;DHT22;6543;48.836;10.092;2023-09-08T14:02:21;27.50;99.90
12957;DHT22;6543;48.836;10.092;2023-09-08T14:04:47;27.50;99.90
12957;DHT22;6543;48.836;10.092;2023-09-08T14:07:14;27.40;99.90
12957;DHT22;6543;48.836;10.092;2023-09-08T14:09:41;27.90;99.90
12957;DHT22;6543;48.836;10.092;2023-09-08T14:12:09;28.00;99.90
12957;DHT22;6543;48.836;10.092;2023-09-08T14:14:36;28.30;99.90
12957;DHT22;6543;48.836;10.092;2023-09-08T14:17:03;28.40;99.90
12957;DHT22;6543;48.836;10.092;2023-09-08T14:19:30;28.30;99.90
12957;DHT22;6543;48.836;10.092;2023-09-08T14:21:57;28.50;99.90
12957;DHT22;6543;48.836;10.092;2023-09-08T14:24:24;28.30;99.90
12957;DHT22;6543;48.836;10.092;2023-09-08T14:26:51;28.30;99.90
12957;DHT22;6543;48.836;10.092;2023-09-08T14:29:21;28.50;99.90
12957;DHT22;6543;48.836;10.092;2023-09-08T14:31:49;28.60;99.90
12957;DHT22;6543;48.836;10.092;2023-09-08T14:34:15;28.70;99.90
12957;DHT22;6543;48.836;10.092;2023-09-08T14:36:43;28.60;99.90
12957;DHT22;6543;48.836;10.092;2023-09-08T14:39:10;28.70;99.90
12957;DHT22;6543;48.836;10.092;2023-09-08T14:41:37;28.60;99.90
12957;DHT22;6543;48.836;10.092;2023-09-08T14:44:04;28.50;99.90
12957;DHT22;6543;48.836;10.092;2023-09-08T14:46:33;28.40;99.90
12957;DHT22;6543;48.836;10.092;2023-09-08T14:48:59;28.00;99.90
12957;DHT22;6543;48.836;10.092;2023-09-08T14:51:26;28.20;99.90
12957;DHT22;6543;48.836;10.092;2023-09-08T14:53:53;28.30;99.90
12957;DHT22;6543;48.836;10.092;2023-09-08T14:56:20;28.10;99.90
12957;DHT22;6543;48.836;10.092;2023-09-08T14:58:47;28.40;99.90
12957;DHT22;6543;48.836;10.092;2023-09-08T15:01:14;28.00;99.90
12957;DHT22;6543;48.836;10.092;2023-09-08T15:03:42;27.80;99.90
12957;DHT22;6543;48.836;10.092;2023-09-08T15:06:09;27.60;99.90
12957;DHT22;6543;48.836;10.092;2023-09-08T15:08:38;27.80;99.90
12957;DHT22;6543;48.836;10.092;2023-09-08T15:11:08;27.90;99.90
12957;DHT22;6543;48.836;10.092;2023-09-08T15:13:35;28.00;99.90
12957;DHT22;6543;48.836;10.092;2023-09-08T15:16:02;28.00;99.90
12957;DHT22;6543;48.836;10.092;2023-09-08T15:18:29;27.90;99.90
12957;DHT22;6543;48.836;10.092;2023-09-08T15:20:58;28.00;99.90
12957;DHT22;6543;48.836;10.092;2023-09-08T15:23:25;27.60;99.90
12957;DHT22;6543;48.836;10.092;2023-09-08T15:25:55;27.50;99.90
12957;DHT22;6543;48.836;10.092;2023-09-08T15:28:22;27.30;99.90
12957;DHT22;6543;48.836;10.092;2023-09-08T15:30:50;27.20;99.90
12957;DHT22;6543;48.836;10.092;2023-09-08T15:33:18;27.10;99.90
12957;DHT22;6543;48.836;10.092;2023-09-08T15:35:46;27.10;99.90
12957;DHT22;6543;48.836;10.092;2023-09-08T15:38:14;27.00;99.90
12957;DHT22;6543;48.836;10.092;2023-09-08T15:40:54;27.00;99.90